McCamey, Texas
Current Conditions -  °F | °C
As of 7:53 AM on Saturday 25 Oct 2014 (Local Time) from KFST Reporting Station
Clear Clear  
Wind Chill: 62°   Ceiling: Unl
Heat Index: 62°   Visibility: 10mi
Dew Point: 55°   Wind: 12mph
Humidity: 78%   Direction: 160°SSE
Pressure: 30.18"   Gusts: NA
Location:  31.14°N, 102.22°W
Report Text: KFST 251253Z AUTO 16010KT 10SM CLR 17/13 A3018 RMK AO2 SLP182 T01670128
Loading
Personal Weather Stations






























Interactive Weather Map
Tropical Storm Tracking
New forecast layout! Learn more

10-Day Weather Forecast

Advertisements
Track Severe Weather on mobile